createdAt,value
2017-12-04T00:00:51.236Z,53.08
2017-12-04T00:01:51.165Z,53.02
2017-12-04T00:02:50.879Z,52.54
2017-12-04T00:03:50.863Z,52.54
2017-12-04T00:04:51.100Z,52.64
2017-12-04T00:05:51.082Z,52.73
2017-12-04T00:06:51.064Z,52.83
2017-12-04T00:07:51.038Z,52.54
2017-12-04T00:08:50.750Z,52.45
2017-12-04T00:09:50.994Z,52.16
2017-12-04T00:10:50.971Z,52.16
2017-12-04T00:11:50.685Z,52.16
2017-12-04T00:12:50.927Z,52.16
2017-12-04T00:13:50.645Z,52.16
2017-12-04T00:14:50.883Z,52.16
2017-12-04T00:15:50.863Z,51.97
2017-12-04T00:16:50.582Z,51.97
2017-12-04T00:17:50.822Z,52.16
2017-12-04T00:18:50.805Z,52.35
2017-12-04T00:19:50.787Z,51.87
2017-12-04T00:20:50.495Z,51.5
2017-12-04T00:21:50.471Z,51.68
2017-12-04T00:22:50.714Z,51.68
2017-12-04T00:23:50.696Z,51.87
2017-12-04T00:24:50.687Z,51.59
2017-12-04T00:25:50.390Z,51.21
2017-12-04T00:26:50.634Z,51.5
2017-12-04T00:27:50.608Z,51.12
2017-12-04T00:28:50.329Z,51.5
2017-12-04T00:29:50.567Z,51.31
2017-12-04T00:30:50.541Z,51.12
2017-12-04T00:31:50.520Z,51.31
2017-12-04T00:32:50.236Z,51.21
2017-12-04T00:33:50.213Z,50.64
2017-12-04T00:34:50.190Z,50.83
2017-12-04T00:35:50.436Z,51.03
2017-12-04T00:36:50.434Z,51.03
2017-12-04T00:37:50.393Z,50.93
2017-12-04T00:38:50.372Z,50.64
2017-12-04T00:39:50.346Z,50.55
2017-12-04T00:40:50.327Z,50.74
2017-12-04T00:41:50.045Z,50.45
2017-12-04T00:42:50.282Z,50.55
2017-12-04T00:43:50.265Z,50.45
2017-12-04T00:44:49.976Z,50.36
2017-12-04T00:45:50.222Z,50.55
2017-12-04T00:46:50.197Z,50.36
2017-12-04T00:47:49.912Z,50.26
2017-12-04T00:48:49.888Z,50.26
2017-12-04T00:49:49.866Z,49.98
2017-12-04T00:50:50.108Z,50.17
2017-12-04T00:51:50.088Z,50.17
2017-12-04T00:52:50.066Z,50.07
2017-12-04T00:53:50.047Z,50.26
2017-12-04T00:54:49.761Z,49.88
2017-12-04T00:55:50.009Z,49.79
2017-12-04T00:56:49.984Z,49.51
2017-12-04T00:57:49.960Z,49.69
2017-12-04T00:58:49.674Z,49.88
2017-12-04T00:59:49.918Z,49.88
2017-12-04T01:00:49.897Z,49.69
2017-12-04T01:01:49.885Z,49.51
2017-12-04T01:02:49.858Z,49.6
2017-12-04T01:03:49.831Z,49.6
2017-12-04T01:04:49.544Z,49.6
2017-12-04T01:05:49.523Z,49.51
2017-12-04T01:06:49.771Z,49.51
2017-12-04T01:07:49.482Z,49.88
2017-12-04T01:08:49.728Z,49.79
2017-12-04T01:09:49.702Z,49.22
2017-12-04T01:10:49.682Z,49.13
2017-12-04T01:11:49.395Z,49.03
2017-12-04T01:12:49.376Z,49.03
2017-12-04T01:13:49.355Z,49.32
2017-12-04T01:14:49.601Z,49.13
2017-12-04T01:15:49.575Z,49.13
2017-12-04T01:16:49.292Z,49.03
2017-12-04T01:17:49.267Z,48.94
2017-12-04T01:18:49.513Z,42.49
2017-12-04T01:19:49.225Z,42.01
2017-12-04T01:20:49.204Z,42.01
2017-12-04T01:21:49.445Z,42.01
2017-12-04T01:22:49.427Z,42.2
2017-12-04T01:23:49.404Z,42.3
2017-12-04T01:24:49.382Z,42.01
2017-12-04T01:25:49.124Z,42.11
2017-12-04T01:26:49.077Z,41.73
2017-12-04T01:27:49.319Z,41.63
2017-12-04T01:28:49.295Z,41.35
2017-12-04T01:29:49.316Z,41.25
2017-12-04T01:30:49.255Z,41.44
2017-12-04T01:31:49.235Z,41.35
2017-12-04T01:32:49.212Z,41.25
2017-12-04T01:33:49.191Z,41.25
2017-12-04T01:34:49.170Z,41.25
2017-12-04T01:35:48.887Z,41.44
2017-12-04T01:36:48.866Z,41.06
2017-12-04T01:37:48.843Z,41.25
2017-12-04T01:38:49.083Z,41.16
2017-12-04T01:39:49.071Z,41.44
2017-12-04T01:40:49.250Z,40.88
2017-12-04T01:41:48.756Z,40.97
2017-12-04T01:42:49.000Z,40.88
2017-12-04T01:43:48.717Z,40.5
2017-12-04T01:44:48.694Z,40.59
2017-12-04T01:45:48.672Z,40.69
2017-12-04T01:46:48.661Z,40.21
2017-12-04T01:47:48.629Z,40.4
2017-12-04T01:48:48.874Z,40.5
2017-12-04T01:49:48.851Z,40.12
2017-12-04T01:50:48.568Z,40.02
2017-12-04T01:51:48.812Z,40.31
2017-12-04T01:52:48.789Z,40.5
2017-12-04T01:53:48.781Z,40.21
2017-12-04T01:54:48.746Z,40.4
2017-12-04T01:55:48.734Z,40.21
2017-12-04T01:56:48.716Z,40.02
2017-12-04T01:57:48.685Z,40.12
2017-12-04T01:58:48.664Z,40.21
2017-12-04T01:59:48.641Z,40.12
2017-12-04T02:00:48.358Z,40.02
2017-12-04T02:01:48.338Z,39.83
2017-12-04T02:02:48.585Z,39.73
2017-12-04T02:03:48.294Z,40.02
2017-12-04T02:04:48.542Z,39.83
2017-12-04T02:05:48.530Z,39.73
2017-12-04T02:06:48.500Z,40.12
2017-12-04T02:07:48.482Z,40.02
2017-12-04T02:08:48.189Z,39.92
2017-12-04T02:09:48.428Z,39.64
2017-12-04T02:10:48.147Z,39.73
2017-12-04T02:11:48.125Z,40.12
2017-12-04T02:12:48.107Z,39.36
2017-12-04T02:13:48.350Z,39.36
2017-12-04T02:14:48.325Z,39.73
2017-12-04T02:15:48.306Z,39.73
2017-12-04T02:16:48.021Z,39.64
2017-12-04T02:17:47.998Z,39.73
2017-12-04T02:18:48.246Z,39.64
2017-12-04T02:19:48.221Z,39.54
2017-12-04T02:20:48.200Z,39.54
2017-12-04T02:21:48.181Z,39.36
2017-12-04T02:22:47.897Z,39.36
2017-12-04T02:23:48.134Z,39.26
2017-12-04T02:24:48.114Z,39.26
2017-12-04T02:25:47.830Z,39.09
2017-12-04T02:26:48.090Z,39.26
2017-12-04T02:27:48.057Z,39.07
2017-12-04T02:28:48.038Z,39.07
2017-12-04T02:29:47.744Z,39.17
2017-12-04T02:30:47.724Z,39.07
2017-12-04T02:31:47.705Z,39.37
2017-12-04T02:32:47.946Z,38.98
2017-12-04T02:33:47.664Z,39.09
2017-12-04T02:34:47.909Z,38.98
2017-12-04T02:35:47.621Z,39
2017-12-04T02:36:47.600Z,39.18
2017-12-04T02:37:47.578Z,39.18
2017-12-04T02:38:47.824Z,38.98
2017-12-04T02:39:47.533Z,38.89
2017-12-04T02:40:47.831Z,38.79
2017-12-04T02:41:47.492Z,38.79
2017-12-04T02:42:47.474Z,38.9
2017-12-04T02:43:47.450Z,38.9
2017-12-04T02:44:47.700Z,38.81
2017-12-04T02:45:47.674Z,38.69
2017-12-04T02:46:47.389Z,38.71
2017-12-04T02:47:47.366Z,38.71
2017-12-04T02:48:47.610Z,38.71
2017-12-04T02:49:47.593Z,38.53
2017-12-04T02:50:47.569Z,38.69
2017-12-04T02:51:47.288Z,38.62
2017-12-04T02:52:47.262Z,38.62
2017-12-04T02:53:47.249Z,38.62
2017-12-04T02:54:47.223Z,38.43
2017-12-04T02:55:47.465Z,38.53
2017-12-04T02:56:47.178Z,38.53
2017-12-04T02:57:47.427Z,38.43
2017-12-04T02:58:47.400Z,38.53
2017-12-04T02:59:47.118Z,38.33
2017-12-04T03:00:47.102Z,38.31
2017-12-04T03:01:47.073Z,38.31
2017-12-04T03:02:47.317Z,38.43
2017-12-04T03:03:47.295Z,38.43
2017-12-04T03:04:47.011Z,38.43
2017-12-04T03:05:47.273Z,38.5
2017-12-04T03:06:46.972Z,38.33
2017-12-04T03:07:47.212Z,38.43
2017-12-04T03:08:47.192Z,38.31
2017-12-04T03:09:46.906Z,38.33
2017-12-04T03:10:47.151Z,38.31
2017-12-04T03:11:47.134Z,38.41
2017-12-04T03:12:46.841Z,38.33
2017-12-04T03:13:46.826Z,38.33
2017-12-04T03:14:46.802Z,38.33
2017-12-04T03:15:46.782Z,38.33
2017-12-04T03:16:47.028Z,38.33
2017-12-04T03:17:47.003Z,38.33
2017-12-04T03:18:46.719Z,38.33
2017-12-04T03:19:46.963Z,38.33
2017-12-04T03:20:46.943Z,38.43
2017-12-04T03:21:46.657Z,38.31
2017-12-04T03:22:46.636Z,38.24
2017-12-04T03:23:46.885Z,38.14
2017-12-04T03:24:46.862Z,38.14
2017-12-04T03:25:46.577Z,38.05
2017-12-04T03:26:46.550Z,38.14
2017-12-04T03:27:46.535Z,38.14
2017-12-04T03:28:46.775Z,38.14
2017-12-04T03:29:46.491Z,38.14
2017-12-04T03:30:46.744Z,38.05
2017-12-04T03:31:46.715Z,38.14
2017-12-04T03:32:46.690Z,38.05
2017-12-04T03:33:46.680Z,38.05
2017-12-04T03:34:46.655Z,37.95
2017-12-04T03:35:46.367Z,37.86
2017-12-04T03:36:46.608Z,37.95
2017-12-04T03:37:46.588Z,38.05
2017-12-04T03:38:46.566Z,37.76
2017-12-04T03:39:46.546Z,37.95
2017-12-04T03:40:46.736Z,37.67
2017-12-04T03:41:46.240Z,37.76
2017-12-04T03:42:46.220Z,37.67
2017-12-04T03:43:46.460Z,37.86
2017-12-04T03:44:46.445Z,37.67
2017-12-04T03:45:46.154Z,37.67
2017-12-04T03:46:46.401Z,37.67
2017-12-04T03:47:46.114Z,37.57
2017-12-04T03:48:46.363Z,37.67
2017-12-04T03:49:46.341Z,37.67
2017-12-04T03:50:46.319Z,37.76
2017-12-04T03:51:46.032Z,37.57
2017-12-04T03:52:46.011Z,37.67
2017-12-04T03:53:46.256Z,37.76
2017-12-04T03:54:45.973Z,37.67
2017-12-04T03:55:46.212Z,37.67
2017-12-04T03:56:46.190Z,37.57
2017-12-04T03:57:45.909Z,37.57
2017-12-04T03:58:45.886Z,37.38
2017-12-04T03:59:46.138Z,37.48
2017-12-04T04:00:45.846Z,37.67
2017-12-04T04:01:46.095Z,37.57
2017-12-04T04:02:45.803Z,37.38
2017-12-04T04:03:45.782Z,37.57
2017-12-04T04:04:45.771Z,37.19
2017-12-04T04:05:45.741Z,37.29
2017-12-04T04:06:45.986Z,37.38
2017-12-04T04:07:45.696Z,37.29
2017-12-04T04:08:45.680Z,37.29
2017-12-04T04:09:45.923Z,37.29
2017-12-04T04:10:45.898Z,37.38
2017-12-04T04:11:45.618Z,37.38
2017-12-04T04:12:45.595Z,37.38
2017-12-04T04:13:45.575Z,37.38
2017-12-04T04:14:45.825Z,36.91
2017-12-04T04:15:45.534Z,37.1
2017-12-04T04:16:45.840Z,37.1
2017-12-04T04:17:45.753Z,37.29
2017-12-04T04:18:45.732Z,37.01
2017-12-04T04:19:45.448Z,37.38
2017-12-04T04:20:45.694Z,37.1
2017-12-04T04:21:45.713Z,37.01
2017-12-04T04:22:45.655Z,37.01
2017-12-04T04:23:45.639Z,37.1
2017-12-04T04:24:45.346Z,36.91
2017-12-04T04:25:45.322Z,37.38
2017-12-04T04:26:45.580Z,37.38
2017-12-04T04:27:45.545Z,37.29
2017-12-04T04:28:45.260Z,37.57
2017-12-04T04:29:45.240Z,37.48
2017-12-04T04:30:45.482Z,37.67
2017-12-04T04:31:45.463Z,37.29
2017-12-04T04:32:45.452Z,37.19
2017-12-04T04:33:45.421Z,37.29
2017-12-04T04:34:45.136Z,37.1
2017-12-04T04:35:45.378Z,37.19
2017-12-04T04:36:45.358Z,37.1
2017-12-04T04:37:45.340Z,37.19
2017-12-04T04:38:45.055Z,37.19
2017-12-04T04:39:45.299Z,36.91
2017-12-04T04:40:45.280Z,36.91
2017-12-04T04:41:45.262Z,37.01
2017-12-04T04:42:44.970Z,37.01
2017-12-04T04:43:45.225Z,37.19
2017-12-04T04:44:45.203Z,37.19
2017-12-04T04:45:44.907Z,37.19
2017-12-04T04:46:45.155Z,36.63
2017-12-04T04:47:44.871Z,37.29
2017-12-04T04:48:44.845Z,37.38
2017-12-04T04:49:45.091Z,37.29
2017-12-04T04:50:45.071Z,37.1
2017-12-04T04:51:44.787Z,36.82
2017-12-04T04:52:45.030Z,36.82
2017-12-04T04:53:45.008Z,37.19
2017-12-04T04:54:44.724Z,37.19
2017-12-04T04:55:44.966Z,37.1
2017-12-04T04:56:44.681Z,36.91
2017-12-04T04:57:44.921Z,37.1
2017-12-04T04:58:44.904Z,36.72
2017-12-04T04:59:44.958Z,37.01
2017-12-04T05:00:44.868Z,37.01
2017-12-04T05:01:44.584Z,36.63
2017-12-04T05:02:44.824Z,36.91
2017-12-04T05:03:44.800Z,36.63
2017-12-04T05:04:44.519Z,36.91
2017-12-04T05:05:44.764Z,36.63
2017-12-04T05:06:44.740Z,36.72
2017-12-04T05:07:44.716Z,36.63
2017-12-04T05:08:44.436Z,37.1
2017-12-04T05:09:44.410Z,36.63
2017-12-04T05:10:44.665Z,36.63
2017-12-04T05:11:44.635Z,36.63
2017-12-04T05:12:44.616Z,37.01
2017-12-04T05:13:44.595Z,36.91
2017-12-04T05:14:44.308Z,36.91
2017-12-04T05:15:44.291Z,36.82
2017-12-04T05:16:44.268Z,37.01
2017-12-04T05:17:44.250Z,36.72
2017-12-04T05:18:44.494Z,36.91
2017-12-04T05:19:44.210Z,36.72
2017-12-04T05:20:44.451Z,36.53
2017-12-04T05:21:44.427Z,36.82
2017-12-04T05:22:44.410Z,36.72
2017-12-04T05:23:44.390Z,36.72
2017-12-04T05:24:44.375Z,36.82
2017-12-04T05:25:44.350Z,36.82
2017-12-04T05:26:44.066Z,36.91
2017-12-04T05:27:44.053Z,36.44
2017-12-04T05:28:44.286Z,36.15
2017-12-04T05:29:44.266Z,36.44
2017-12-04T05:30:43.982Z,36.15
2017-12-04T05:31:44.222Z,36.44
2017-12-04T05:32:44.208Z,36.53
2017-12-04T05:33:44.185Z,36.44
2017-12-04T05:34:44.164Z,36.44
2017-12-04T05:35:44.144Z,36.44
2017-12-04T05:36:43.860Z,36.63
2017-12-04T05:37:43.836Z,36.82
2017-12-04T05:38:43.814Z,36.72
2017-12-04T05:39:43.796Z,36.63
2017-12-04T05:40:43.976Z,36.44
2017-12-04T05:41:43.756Z,36.34
2017-12-04T05:42:43.999Z,36.34
2017-12-04T05:43:43.710Z,36.24
2017-12-04T05:44:43.690Z,36.24
2017-12-04T05:45:43.686Z,36.34
2017-12-04T05:46:43.916Z,36.34
2017-12-04T05:47:43.897Z,36.34
2017-12-04T05:48:43.876Z,36.15
2017-12-04T05:49:43.850Z,36.34
2017-12-04T05:50:43.831Z,36.24
2017-12-04T05:51:43.810Z,36.24
2017-12-04T05:52:43.527Z,36.34
2017-12-04T05:53:43.767Z,36.05
2017-12-04T05:54:43.764Z,36.05
2017-12-04T05:55:43.464Z,36.15
2017-12-04T05:56:43.710Z,36.15
2017-12-04T05:57:43.421Z,36.24
2017-12-04T05:58:43.407Z,36.53
2017-12-04T05:59:43.649Z,36.53
2017-12-04T06:00:43.628Z,35.96
2017-12-04T06:01:43.344Z,36.05
2017-12-04T06:02:43.586Z,36.05
2017-12-04T06:03:43.299Z,35.96
2017-12-04T06:04:43.279Z,36.15
2017-12-04T06:05:43.535Z,36.15
2017-12-04T06:06:43.237Z,36.05
2017-12-04T06:07:43.218Z,36.53
2017-12-04T06:08:43.195Z,36.05
2017-12-04T06:09:43.175Z,36.05
2017-12-04T06:10:43.420Z,36.15
2017-12-04T06:11:43.137Z,36.05
2017-12-04T06:12:43.128Z,35.96
2017-12-04T06:13:43.097Z,36.34
2017-12-04T06:14:43.339Z,36.24
2017-12-04T06:15:43.317Z,36.05
2017-12-04T06:16:43.303Z,36.24
2017-12-04T06:17:43.011Z,35.96
2017-12-04T06:18:43.269Z,35.96
2017-12-04T06:19:43.247Z,35.86
2017-12-04T06:20:43.222Z,35.86
2017-12-04T06:21:43.197Z,35.58
2017-12-04T06:22:43.188Z,35.58
2017-12-04T06:23:43.161Z,35.77
2017-12-04T06:24:43.136Z,35.68
2017-12-04T06:25:43.115Z,35.86
2017-12-04T06:26:42.832Z,35.77
2017-12-04T06:27:43.077Z,35.68
2017-12-04T06:28:42.786Z,35.58
2017-12-04T06:29:42.765Z,35.68
2017-12-04T06:30:43.013Z,35.68
2017-12-04T06:31:43.032Z,35.3
2017-12-04T06:32:42.986Z,35.2
2017-12-04T06:33:42.946Z,35.2
2017-12-04T06:34:42.934Z,35.11
2017-12-04T06:35:42.911Z,35.2
2017-12-04T06:36:42.621Z,35.2
2017-12-04T06:37:42.861Z,35.3
2017-12-04T06:38:42.856Z,35.39
2017-12-04T06:39:42.821Z,35.3
2017-12-04T06:40:42.806Z,35.2
2017-12-04T06:41:42.522Z,35.39
2017-12-04T06:42:42.763Z,35.39
2017-12-04T06:43:42.475Z,35.49
2017-12-04T06:44:42.458Z,35.2
2017-12-04T06:45:42.700Z,35.3
2017-12-04T06:46:42.684Z,35.3
2017-12-04T06:47:42.662Z,35.39
2017-12-04T06:48:42.636Z,35.39
2017-12-04T06:49:42.620Z,35.39
2017-12-04T06:50:42.597Z,35.2
2017-12-04T06:51:42.576Z,35.2
2017-12-04T06:52:42.560Z,35.39
2017-12-04T06:53:42.272Z,35.2
2017-12-04T06:54:42.288Z,35.11
2017-12-04T06:55:42.502Z,35.01
2017-12-04T06:56:42.214Z,35.01
2017-12-04T06:57:42.468Z,35.01
2017-12-04T06:58:42.493Z,34.73
2017-12-04T06:59:42.416Z,35.13
2017-12-04T07:00:42.126Z,34.63
2017-12-04T07:01:42.113Z,34.82
2017-12-04T07:02:42.087Z,34.94
2017-12-04T07:03:42.375Z,34.94
2017-12-04T07:04:42.309Z,35.13
2017-12-04T07:05:42.338Z,34.82
2017-12-04T07:06:42.268Z,34.82
2017-12-04T07:07:42.246Z,34.82
2017-12-04T07:08:41.965Z,34.63
2017-12-04T07:09:41.947Z,34.82
2017-12-04T07:10:41.922Z,34.82
2017-12-04T07:11:41.902Z,34.84
2017-12-04T07:12:41.881Z,34.84
2017-12-04T07:13:42.120Z,34.94
2017-12-04T07:14:41.841Z,34.73
2017-12-04T07:15:41.814Z,34.54
2017-12-04T07:16:41.799Z,34.44
2017-12-04T07:17:41.778Z,34.55
2017-12-04T07:18:41.762Z,34.55
2017-12-04T07:19:42.003Z,34.54
2017-12-04T07:20:41.715Z,34.65
2017-12-04T07:21:41.698Z,34.55
2017-12-04T07:22:41.939Z,34.46
2017-12-04T07:23:41.656Z,34.55
2017-12-04T07:24:41.899Z,34.55
2017-12-04T07:25:41.888Z,34.27
2017-12-04T07:26:41.858Z,34.27
2017-12-04T07:27:41.845Z,34.17
2017-12-04T07:28:41.819Z,34.08
2017-12-04T07:29:41.795Z,34.27
2017-12-04T07:30:41.778Z,34.17
2017-12-04T07:31:41.491Z,34.25
2017-12-04T07:32:41.471Z,34.27
2017-12-04T07:33:41.451Z,34.06
2017-12-04T07:34:41.696Z,34.06
2017-12-04T07:35:41.679Z,34.17
2017-12-04T07:36:41.390Z,34.27
2017-12-04T07:37:41.402Z,34.27
2017-12-04T07:38:41.350Z,34.08
2017-12-04T07:39:41.589Z,34.16
2017-12-04T07:40:41.979Z,34.17
2017-12-04T07:41:41.551Z,34.08
2017-12-04T07:42:41.541Z,33.32
2017-12-04T07:43:41.249Z,33.98
2017-12-04T07:44:41.487Z,33.78
2017-12-04T07:45:41.472Z,33.98
2017-12-04T07:46:41.460Z,33.98
2017-12-04T07:47:41.429Z,33.97
2017-12-04T07:48:41.414Z,34.08
2017-12-04T07:49:41.389Z,33.98
2017-12-04T07:50:41.377Z,33.32
2017-12-04T07:51:41.080Z,33.51
2017-12-04T07:52:41.085Z,33.13
2017-12-04T07:53:41.044Z,33.23
2017-12-04T07:54:41.035Z,33.13
2017-12-04T07:55:41.266Z,33.13
2017-12-04T07:56:41.256Z,33.23
2017-12-04T07:57:41.233Z,33.04
2017-12-04T07:58:41.222Z,33.13
2017-12-04T07:59:40.919Z,33.04
2017-12-04T08:00:41.187Z,33.04
2017-12-04T08:01:40.878Z,32.94
2017-12-04T08:02:40.865Z,32.94
2017-12-04T08:03:40.839Z,33.04
2017-12-04T08:04:41.161Z,33.23
2017-12-04T08:05:40.795Z,33.23
2017-12-04T08:06:40.774Z,32.84
2017-12-04T08:07:41.020Z,33.23
2017-12-04T08:08:40.732Z,33.04
2017-12-04T08:09:40.714Z,32.94
2017-12-04T08:10:40.965Z,32.75
2017-12-04T08:11:40.674Z,32.46
2017-12-04T08:12:40.931Z,32.56
2017-12-04T08:13:40.637Z,32.56
2017-12-04T08:14:40.907Z,32.37
2017-12-04T08:15:40.600Z,32.37
2017-12-04T08:16:40.580Z,32.37
2017-12-04T08:17:40.818Z,32.56
2017-12-04T08:18:40.534Z,32.65
2017-12-04T08:19:40.783Z,32.65
2017-12-04T08:20:40.757Z,32.18
2017-12-04T08:21:40.474Z,32.18
2017-12-04T08:22:40.729Z,32.37
2017-12-04T08:23:40.698Z,32.37
2017-12-04T08:24:40.690Z,32.18
2017-12-04T08:25:40.402Z,32.18
2017-12-04T08:26:40.636Z,32.09
2017-12-04T08:27:40.354Z,32.18
2017-12-04T08:28:40.603Z,32.18
2017-12-04T08:29:40.315Z,32.09
2017-12-04T08:30:40.559Z,32.18
2017-12-04T08:31:40.271Z,32.18
2017-12-04T08:32:40.256Z,32.18
2017-12-04T08:33:40.234Z,31.9
2017-12-04T08:34:40.476Z,31.99
2017-12-04T08:35:40.456Z,32.09
2017-12-04T08:36:40.174Z,31.9
2017-12-04T08:37:40.419Z,31.99
2017-12-04T08:38:40.404Z,32.09
2017-12-04T08:39:40.114Z,31.9
2017-12-04T08:40:40.119Z,31.9
2017-12-04T08:41:40.073Z,31.99
2017-12-04T08:42:40.317Z,31.9
2017-12-04T08:43:40.301Z,31.9
2017-12-04T08:44:40.286Z,31.9
2017-12-04T08:45:40.258Z,31.8
2017-12-04T08:46:40.239Z,31.8
2017-12-04T08:47:39.954Z,31.71
2017-12-04T08:48:40.215Z,31.61
2017-12-04T08:49:40.177Z,31.52
2017-12-04T08:50:39.890Z,31.52
2017-12-04T08:51:40.137Z,31.52
2017-12-04T08:52:40.122Z,31.23
2017-12-04T08:53:39.833Z,31.33
2017-12-04T08:54:40.076Z,31.13
2017-12-04T08:55:39.792Z,30.94
2017-12-04T08:56:40.046Z,31.13
2017-12-04T08:57:40.020Z,31.04
2017-12-04T08:58:40.012Z,30.85
2017-12-04T08:59:39.977Z,31.04
2017-12-04T09:00:39.694Z,31.04
2017-12-04T09:01:39.941Z,30.94
2017-12-04T09:02:39.919Z,30.94
2017-12-04T09:03:39.896Z,30.94
2017-12-04T09:04:42.374Z,30.76
2017-12-04T09:05:39.859Z,31.04
2017-12-04T09:06:39.572Z,30.66
2017-12-04T09:07:39.556Z,30.85
2017-12-04T09:08:39.533Z,30.77
2017-12-04T09:09:39.781Z,30.68
2017-12-04T09:10:39.497Z,30.85
2017-12-04T09:11:39.745Z,30.77
2017-12-04T09:12:39.718Z,30.47
2017-12-04T09:13:39.702Z,30.57
2017-12-04T09:14:39.682Z,30.57
2017-12-04T09:15:39.403Z,30.58
2017-12-04T09:16:39.377Z,30.77
2017-12-04T09:17:39.630Z,30.66
2017-12-04T09:18:39.336Z,30.47
2017-12-04T09:19:39.581Z,30.66
2017-12-04T09:20:39.302Z,30.58
2017-12-04T09:21:39.548Z,30.57
2017-12-04T09:22:39.260Z,30.57
2017-12-04T09:23:39.502Z,30.01
2017-12-04T09:24:39.216Z,30.38
2017-12-04T09:25:39.460Z,30.09
2017-12-04T09:26:39.441Z,30.38
2017-12-04T09:27:39.161Z,30.2
2017-12-04T09:28:39.405Z,30.11
2017-12-04T09:29:39.385Z,29.92
2017-12-04T09:30:39.365Z,29.35
2017-12-04T09:31:39.079Z,29.44
2017-12-04T09:32:39.059Z,29.63
2017-12-04T09:33:39.303Z,29.53
2017-12-04T09:34:39.285Z,29.35
2017-12-04T09:35:39.004Z,29.25
2017-12-04T09:36:38.987Z,29.44
2017-12-04T09:37:38.962Z,29.08
2017-12-04T09:38:39.207Z,29.17
2017-12-04T09:39:38.937Z,29.36
2017-12-04T09:40:39.170Z,29.93
2017-12-04T09:41:39.150Z,29.36
2017-12-04T09:42:38.926Z,29.64
2017-12-04T09:43:39.146Z,29.64
2017-12-04T09:44:39.097Z,29.55
2017-12-04T09:45:38.818Z,29.64
2017-12-04T09:46:38.812Z,29.44
2017-12-04T09:47:38.775Z,29.84
2017-12-04T09:48:39.023Z,29.73
2017-12-04T09:49:38.742Z,29.82
2017-12-04T09:50:38.720Z,30.01
2017-12-04T09:51:38.701Z,29.35
2017-12-04T09:52:38.965Z,29.25
2017-12-04T09:53:38.665Z,29.25
2017-12-04T09:54:38.961Z,29.44
2017-12-04T09:55:38.890Z,29.44
2017-12-04T09:56:38.919Z,29.44
2017-12-04T09:57:38.851Z,29.44
2017-12-04T09:58:38.566Z,29.35
2017-12-04T09:59:38.548Z,29.35
2017-12-04T10:00:38.531Z,29.53
2017-12-04T10:01:38.783Z,29.35
2017-12-04T10:02:38.756Z,29.63
2017-12-04T10:03:38.740Z,29.73
2017-12-04T10:04:38.724Z,29.53
2017-12-04T10:05:38.701Z,29.73
2017-12-04T10:06:38.685Z,29.44
2017-12-04T10:07:38.396Z,29.25
2017-12-04T10:08:38.644Z,29.25
2017-12-04T10:09:38.626Z,29.53
2017-12-04T10:10:38.346Z,29.06
2017-12-04T10:11:38.592Z,28.97
2017-12-04T10:12:38.301Z,28.68
2017-12-04T10:13:38.546Z,28.02
2017-12-04T10:14:38.263Z,28.49
2017-12-04T10:15:38.513Z,28.21
2017-12-04T10:16:38.492Z,28.4
2017-12-04T10:17:38.207Z,28.49
2017-12-04T10:18:38.453Z,28.4
2017-12-04T10:19:38.437Z,28.11
2017-12-04T10:20:38.414Z,28.11
2017-12-04T10:21:38.407Z,28.02
2017-12-04T10:22:38.111Z,28.21
2017-12-04T10:23:38.095Z,28.11
2017-12-04T10:24:38.075Z,27.83
2017-12-04T10:25:38.319Z,27.92
2017-12-04T10:26:38.303Z,27.92
2017-12-04T10:27:38.279Z,28.11
2017-12-04T10:28:38.269Z,28.21
2017-12-04T10:29:38.263Z,28.21
2017-12-04T10:30:38.222Z,28.21
2017-12-04T10:31:37.939Z,27.92
2017-12-04T10:32:38.184Z,27.83
2017-12-04T10:33:38.163Z,27.64
2017-12-04T10:34:37.889Z,27.45
2017-12-04T10:35:38.125Z,27.73
2017-12-04T10:36:38.107Z,27.64
2017-12-04T10:37:38.123Z,27.83
2017-12-04T10:38:38.072Z,27.55
2017-12-04T10:39:37.794Z,27.64
2017-12-04T10:40:37.768Z,27.45
2017-12-04T10:41:38.011Z,27.26
2017-12-04T10:42:37.724Z,27.36
2017-12-04T10:43:37.712Z,27.55
2017-12-04T10:44:37.951Z,27.26
2017-12-04T10:45:37.670Z,27.36
2017-12-04T10:46:37.914Z,27.16
2017-12-04T10:47:37.900Z,27.45
2017-12-04T10:48:37.884Z,27.36
2017-12-04T10:49:37.858Z,27.36
2017-12-04T10:50:37.843Z,27.16
2017-12-04T10:51:37.826Z,27.26
2017-12-04T10:52:37.536Z,26.97
2017-12-04T10:53:37.517Z,26.97
2017-12-04T10:54:37.767Z,27.07
2017-12-04T10:55:37.740Z,27.07
2017-12-04T10:56:37.724Z,26.88
2017-12-04T10:57:37.444Z,27.36
2017-12-04T10:58:37.430Z,27.07
2017-12-04T10:59:37.401Z,26.78
2017-12-04T11:00:37.663Z,26.69
2017-12-04T11:01:37.625Z,26.59
2017-12-04T11:02:37.345Z,27.07
2017-12-04T11:03:37.339Z,26.78
2017-12-04T11:04:37.313Z,26.59
2017-12-04T11:05:37.293Z,26.69
2017-12-04T11:06:37.540Z,26.4
2017-12-04T11:07:37.523Z,26.51
2017-12-04T11:08:37.241Z,26.21
2017-12-04T11:09:37.214Z,26.42
2017-12-04T11:10:37.460Z,26.42
2017-12-04T11:11:37.438Z,26.4
2017-12-04T11:12:37.421Z,26.78
2017-12-04T11:13:37.407Z,26.4
2017-12-04T11:14:37.116Z,26.59
2017-12-04T11:15:37.359Z,26.51
2017-12-04T11:16:37.080Z,26.69
2017-12-04T11:17:37.061Z,26.69
2017-12-04T11:18:37.326Z,26.78
2017-12-04T11:19:37.286Z,27.07
2017-12-04T11:20:37.264Z,26.7
2017-12-04T11:21:37.255Z,26.78
2017-12-04T11:22:37.229Z,26.79
2017-12-04T11:23:37.228Z,26.88
2017-12-04T11:24:37.188Z,26.4
2017-12-04T11:25:36.907Z,26.4
2017-12-04T11:26:37.152Z,26.51
2017-12-04T11:27:36.879Z,26.51
2017-12-04T11:28:36.852Z,26.5
2017-12-04T11:29:37.097Z,26.32
2017-12-04T11:30:37.081Z,26.5
2017-12-04T11:31:36.807Z,26.42
2017-12-04T11:32:37.043Z,26.32
2017-12-04T11:33:37.096Z,26.51
2017-12-04T11:34:36.745Z,26.61
2017-12-04T11:35:36.993Z,26.79
2017-12-04T11:36:36.699Z,26.42
2017-12-04T11:37:36.949Z,26.51
2017-12-04T11:38:36.930Z,26.61
2017-12-04T11:39:36.909Z,26.7
2017-12-04T11:40:36.628Z,26.79
2017-12-04T11:41:37.079Z,26.79
2017-12-04T11:42:36.856Z,26.79
2017-12-04T11:43:36.833Z,26.79
2017-12-04T11:44:36.555Z,26.79
2017-12-04T11:45:36.794Z,26.79
2017-12-04T11:46:36.514Z,26.79
2017-12-04T11:47:36.756Z,26.7
2017-12-04T11:48:36.740Z,26.61
2017-12-04T11:49:36.455Z,26.79
2017-12-04T11:50:36.444Z,26.79
2017-12-04T11:51:36.686Z,26.61
2017-12-04T11:52:36.664Z,26.51
2017-12-04T11:53:36.647Z,26.7
2017-12-04T11:54:36.633Z,26.51
2017-12-04T11:55:36.343Z,26.32
2017-12-04T11:56:36.591Z,26.23
2017-12-04T11:57:36.304Z,26.32
2017-12-04T11:58:36.288Z,26.32
2017-12-04T11:59:36.271Z,26.51
2017-12-04T12:00:36.516Z,26.51
2017-12-04T12:01:36.510Z,26.51
2017-12-04T12:02:36.213Z,26.89
2017-12-04T12:03:36.459Z,26.98
2017-12-04T12:04:36.444Z,26.79
2017-12-04T12:05:36.431Z,26.7
2017-12-04T12:06:36.418Z,26.61
2017-12-04T12:07:36.123Z,27.08
2017-12-04T12:08:36.384Z,26.98
2017-12-04T12:09:36.350Z,26.98
2017-12-04T12:10:36.074Z,27.37
2017-12-04T12:11:36.313Z,27.56
2017-12-04T12:12:36.033Z,27.65
2017-12-04T12:13:36.013Z,27.94
2017-12-04T12:14:36.310Z,27.75
2017-12-04T12:15:36.242Z,27.94
2017-12-04T12:16:35.964Z,27.94
2017-12-04T12:17:36.204Z,28.31
2017-12-04T12:18:36.186Z,27.95
2017-12-04T12:19:36.176Z,28.14
2017-12-04T12:20:36.194Z,29
2017-12-04T12:21:36.134Z,29.27
2017-12-04T12:22:35.857Z,29.55
2017-12-04T12:23:36.099Z,29.57
2017-12-04T12:24:35.820Z,29.46
2017-12-04T12:25:35.800Z,29.47
2017-12-04T12:26:35.782Z,30.23
2017-12-04T12:27:36.034Z,29.47
2017-12-04T12:28:36.008Z,30.52
2017-12-04T12:29:35.999Z,30.33
2017-12-04T12:30:35.980Z,30.8
2017-12-04T12:31:35.956Z,31.09
2017-12-04T12:32:35.674Z,31.93
2017-12-04T12:33:35.658Z,31.47
2017-12-04T12:34:35.902Z,31.66
2017-12-04T12:35:35.620Z,31.95
2017-12-04T12:36:35.866Z,31.95
2017-12-04T12:37:35.852Z,31.95
2017-12-04T12:38:35.834Z,31.85
2017-12-04T12:39:35.814Z,33.37
2017-12-04T12:40:35.534Z,33.94
2017-12-04T12:41:35.779Z,34.7
2017-12-04T12:42:35.500Z,34.89
2017-12-04T12:43:35.479Z,36.79
2017-12-04T12:44:35.743Z,36.04
2017-12-04T12:45:35.805Z,36.22
2017-12-04T12:46:35.430Z,37.18
2017-12-04T12:47:35.408Z,38.03
2017-12-04T12:48:35.390Z,38.03
2017-12-04T12:49:35.371Z,37.55
2017-12-04T12:50:35.360Z,38.79
2017-12-04T12:51:35.606Z,39.17
2017-12-04T12:52:35.320Z,39.84
2017-12-04T12:53:35.302Z,41.26
2017-12-04T12:54:35.552Z,41.74
2017-12-04T12:55:35.531Z,44.31